Doyon, North Dakota
Current Conditions -  °F | °C
As of 6:15 PM on Sunday 23 Nov 2014 (Local Time) from KDVL Reporting Station
Overcast Overcast  
Wind Chill: -2°   Ceiling: 2700
Heat Index: 16°   Visibility: 10mi
Dew Point:   Wind: 23mph
Humidity: 58%   Direction: 330°NNW
Pressure: 29.59"   Gusts: 30mph
Location:  48.0187°N, 98.6029°W
Report Text: KDVL 240015Z AUTO 33020G26KT 10SM SCT017 BKN027 OVC042 M09/M16 A2959 RMK AO1
Loading
Personal Weather Stations






























Interactive Weather Map New forecast layout! Learn more

10-Day Weather Forecast

Advertisements
Track Severe Weather on mobile